Monroe, MI (48161)

6:03 AM EST on February 09, 2016 (GMT -0500)
Carrington Farms | | Change Station
CLOSE
Current Station
Personal Weather Station
Location: Monroe, MI
Elevation: 600 ft
Nearby Weather Stations

Elev 600 ft 41.92 °N, 83.45 °W | Updated 1 minute ago

Light Snow
Light Snow
30.4 °F
Feels Like 27 °F
N
3.2
Wind Variable Wind from SSW

Today
High -- | Low -- °F
--% Chance of Precip.
Yesterday
High -- | Low -- °F
Precip. -- in
Pressure 29.54 in
Visibility 7.0 miles
Clouds Scattered Clouds 1100 ft
Mostly Cloudy 1900 ft
Overcast 4600 ft
Windchill 27 °F
Dew Point 28 °F
Humidity 89%
Rainfall 0.00 in
Snow Depth Not available.
7:37 AM 5:58 PM
New Moon, 1% visible
METAR KTTF 091053Z AUTO 25008KT 7SM -SN SCT011 BKN019 OVC046 00/M02 A2954 RMK AO2 T10051020
Pressure 29.54 in
Visibility 7.0 miles
Clouds Scattered Clouds 1100 ft
Mostly Cloudy 1900 ft
Overcast 4600 ft
Windchill 27 °F
Dew Point 28 °F
Humidity 89%
Rainfall 0.00 in
Snow Depth Not available.
7:37 AM 5:58 PM
New Moon, 1% visible
METAR KTTF 091053Z AUTO 25008KT 7SM -SN SCT011 BKN019 OVC046 00/M02 A2954 RMK AO2 T10051020

10-Day Weather Forecast

Almanac

Astronomy

Feb. 09, 2016 Rise Set
Actual Time
Civil Twilight
Nautical Twilight
Astronomical Twilight
Moon
Length of Visible Light
Length of Day
Tomorrow will be .
, % of the Moon is Illuminated

Today's Extremes

State Highs State Lows

Community

WunderPhotos

Upload Photos

1,891,565 photos uploaded!

WunderBlog® & News

Nearby

Air Quality

  Air Quality AQ Index Pollutant
Not available.

Snow Depth

Station Depth Elevation

Earthquake Activity

City Distance Mag. Time & Date
Minimum magnitude displayed is 2.5.

Coastal Water Temperatures

Place Temperature

Stations

Nearby Weather Stations

Station Location Temp. Windchill Dew Point Humidity Wind Precip. Elev Updated Type
                   

Watches & Warnings

There are currently no watches in effect.